Time;durP1;ratioP1;P1;durP2;ratioP2;P2;SDS_P1;SDS_P2;PMS_P1;PMS_P2;Temp;Humidity;BMP_temperature;BMP_pressure;BME280_temperature;BME280_humidity;BME280_pressure;Samples;Min_cycle;Max_cycle;Signal;HPM_P1;HPM_P2
2022/03/16 00:01:19;;;;;;;8.57;6.18;;;;;;;19.06;40.57;101806.09;5027497;28;20029;-39
2022/03/16 00:03:45;;;;;;;7.43;5.72;;;;;;;19.06;40.49;101811.38;5026069;28;20076;-42
2022/03/16 00:06:10;;;;;;;8.98;5.78;;;;;;;19.05;40.52;101804.44;5029238;28;20033;-46
2022/03/16 00:08:36;;;;;;;7.72;6.28;;;;;;;19.04;40.53;101810.72;5029883;28;20048;-45
2022/03/16 00:11:02;;;;;;;8.07;6.53;;;;;;;19.04;40.45;101804.63;5031635;28;20099;-47
2022/03/16 00:13:27;;;;;;;6.88;5.55;;;;;;;19.03;40.34;101797.69;4984148;28;1313721;-40
2022/03/16 00:15:53;;;;;;;6.25;5.28;;;;;;;19.03;40.43;101800.31;5013033;28;20072;-42
2022/03/16 00:18:21;;;;;;;9.55;5.97;;;;;;;19.02;40.47;101793.41;5013159;28;20107;-42
2022/03/16 00:20:48;;;;;;;7.40;5.85;;;;;;;19.02;40.44;101788.13;5013243;28;20018;-43
2022/03/16 00:23:14;;;;;;;7.80;5.72;;;;;;;19.02;40.49;101782.81;5022083;28;20336;-42
2022/03/16 00:25:39;;;;;;;5.88;5.07;;;;;;;19.01;40.38;101783.81;5011283;28;20030;-45
2022/03/16 00:28:05;;;;;;;8.07;5.13;;;;;;;19.00;40.45;101787.44;5008184;28;20034;-39
2022/03/16 00:30:30;;;;;;;8.90;6.03;;;;;;;19.00;40.46;101782.16;5010053;28;20061;-43
2022/03/16 00:32:56;;;;;;;9.88;6.50;;;;;;;18.97;40.48;101774.59;5015584;28;20072;-47
2022/03/16 00:35:21;;;;;;;7.88;6.13;;;;;;;18.98;40.48;101778.88;5012944;28;20036;-42
2022/03/16 00:37:47;;;;;;;9.13;6.50;;;;;;;18.98;40.57;101776.22;5022727;28;20038;-45
2022/03/16 00:40:12;;;;;;;7.15;5.65;;;;;;;18.96;40.53;101765.84;4992074;28;20513;-45
2022/03/16 00:42:38;;;;;;;8.05;6.28;;;;;;;18.97;40.58;101756.09;5008680;28;20125;-48
2022/03/16 00:45:04;;;;;;;6.35;5.35;;;;;;;18.96;40.51;101760.56;5009910;28;20026;-46
2022/03/16 00:47:30;;;;;;;8.30;5.90;;;;;;;18.96;40.59;101749.16;5022802;28;20449;-49
2022/03/16 00:49:55;;;;;;;7.82;6.07;;;;;;;18.96;40.50;101747.34;5022079;28;20799;-44
2022/03/16 00:52:21;;;;;;;6.70;5.43;;;;;;;18.95;40.59;101747.50;5014577;28;20486;-42
2022/03/16 00:54:46;;;;;;;5.75;4.97;;;;;;;18.95;40.55;101747.50;5009600;28;20093;-40
2022/03/16 00:57:12;;;;;;;6.60;5.30;;;;;;;18.94;40.61;101741.41;5013956;28;20053;-43
2022/03/16 00:59:39;;;;;;;7.20;4.65;;;;;;;18.94;40.67;101733.50;5012009;28;20028;-45
2022/03/16 01:02:05;;;;;;;5.88;4.90;;;;;;;18.95;40.52;101736.94;5014071;28;20129;-47
2022/03/16 01:04:30;;;;;;;7.57;4.90;;;;;;;18.94;40.39;101725.56;5007589;28;20025;-43
2022/03/16 01:06:56;;;;;;;8.88;5.57;;;;;;;18.93;40.63;101720.44;5017890;28;20117;-44
2022/03/16 01:09:21;;;;;;;5.80;5.20;;;;;;;18.94;40.51;101714.19;5011840;28;20032;-43
2022/03/16 01:11:47;;;;;;;7.63;5.72;;;;;;;18.93;40.62;101712.53;5007977;28;20045;-40
2022/03/16 01:14:13;;;;;;;6.55;5.10;;;;;;;18.93;40.65;101712.53;5023712;28;20651;-43
2022/03/16 01:16:39;;;;;;;6.95;5.10;;;;;;;18.93;40.59;101707.25;5028536;28;20400;-40
2022/03/16 01:19:05;;;;;;;5.38;4.80;;;;;;;18.94;40.55;101706.25;5024859;28;20068;-42
2022/03/16 01:21:32;;;;;;;6.70;4.65;;;;;;;18.92;40.51;101695.84;5027591;28;20650;-40
2022/03/16 01:23:58;;;;;;;7.55;5.10;;;;;;;18.92;40.37;101700.31;5028389;28;20037;-48
2022/03/16 01:26:24;;;;;;;6.05;4.82;;;;;;;18.91;40.52;101696.84;5025944;28;20033;-43
2022/03/16 01:28:50;;;;;;;6.00;5.20;;;;;;;18.91;40.43;101694.22;5027128;28;20112;-40
2022/03/16 01:31:18;;;;;;;5.18;3.85;;;;;;;18.89;40.49;101683.03;5027385;28;20473;-46
2022/03/16 01:33:44;;;;;;;4.70;4.10;;;;;;;18.87;40.58;101672.63;5023645;28;20061;-45
2022/03/16 01:36:09;;;;;;;7.38;4.13;;;;;;;18.87;40.50;101671.81;5025211;28;20143;-49
2022/03/16 01:38:34;;;;;;;5.13;4.50;;;;;;;18.86;40.54;101681.53;5027853;28;20079;-44
2022/03/16 01:41:00;;;;;;;5.78;5.18;;;;;;;18.85;40.58;101664.06;5026630;28;20029;-44
2022/03/16 01:43:25;;;;;;;6.95;4.82;;;;;;;18.86;40.70;101662.25;5013692;28;20029;-47
2022/03/16 01:45:51;;;;;;;6.80;4.45;;;;;;;18.86;40.74;101665.69;5019791;28;20041;-45
2022/03/16 01:48:18;;;;;;;8.35;5.30;;;;;;;18.86;40.58;101659.59;5028049;28;20493;-42
2022/03/16 01:50:45;;;;;;;6.05;5.28;;;;;;;18.84;40.65;101654.47;5025022;28;20175;-41
2022/03/16 01:53:12;;;;;;;6.07;4.28;;;;;;;18.84;40.68;101657.13;5024663;28;20083;-42
2022/03/16 01:55:41;;;;;;;4.47;4.07;;;;;;;18.83;40.73;101644.91;5027045;28;20493;-45
2022/03/16 01:58:07;;;;;;;6.50;4.57;;;;;;;18.84;40.65;101645.75;5026974;28;20556;-40
2022/03/16 02:00:33;;;;;;;6.72;4.28;;;;;;;18.83;40.71;101639.63;5026204;28;20374;-40
2022/03/16 02:02:59;;;;;;;4.40;3.95;;;;;;;18.83;40.54;101629.06;5023804;28;20033;-41
2022/03/16 02:05:24;;;;;;;4.60;3.75;;;;;;;18.82;40.69;101640.63;5026312;28;20442;-40
2022/03/16 02:07:50;;;;;;;5.57;3.95;;;;;;;18.81;40.68;101631.06;5026772;28;20025;-42
2022/03/16 02:12:52;;;;;;;3.92;3.00;;;;;;;18.80;40.54;101628.59;5195012;22;20048;-45
2022/03/16 02:15:19;;;;;;;4.38;3.17;;;;;;;18.78;40.70;101623.47;5029367;28;20122;-39
2022/03/16 02:17:45;;;;;;;4.55;3.47;;;;;;;18.77;40.77;101611.28;5028684;28;20029;-42
2022/03/16 02:20:11;;;;;;;4.63;3.55;;;;;;;18.77;40.58;101623.66;5045358;28;20488;-41
2022/03/16 02:22:56;;;;;;;4.80;3.25;;;;;;;18.76;40.65;101614.91;5045934;28;20400;-41
2022/03/16 02:25:23;;;;;;;3.95;3.30;;;;;;;18.75;40.70;101610.63;5030056;28;20341;-43
2022/03/16 02:27:49;;;;;;;6.65;3.22;;;;;;;18.75;40.65;101604.50;5045978;28;20498;-41
2022/03/16 02:30:15;;;;;;;3.70;3.03;;;;;;;18.75;40.71;101605.34;5046051;28;20060;-40
2022/03/16 02:32:41;;;;;;;3.20;2.85;;;;;;;18.74;40.63;101602.88;5045783;28;20025;-44
2022/03/16 02:35:07;;;;;;;3.97;3.15;;;;;;;18.74;40.70;101606.31;5046584;28;20452;-40
2022/03/16 02:37:36;;;;;;;4.25;3.85;;;;;;;18.74;40.70;101613.44;5046738;28;20113;-43
2022/03/16 02:40:02;;;;;;;4.25;3.63;;;;;;;18.73;40.71;101599.41;5016539;28;20384;-42
2022/03/16 02:42:27;;;;;;;4.43;2.92;;;;;;;18.72;40.55;101605.69;5041445;28;20063;-40
2022/03/16 02:44:53;;;;;;;3.42;3.13;;;;;;;18.71;40.73;101600.56;5046294;28;20076;-43
2022/03/16 02:47:18;;;;;;;4.90;3.10;;;;;;;18.71;40.67;101597.91;5046830;28;20350;-43
2022/03/16 02:49:44;;;;;;;3.05;2.35;;;;;;;18.71;40.81;101603.19;5045189;28;20033;-40
2022/03/16 02:52:09;;;;;;;4.38;3.55;;;;;;;18.69;40.66;101600.72;5045748;28;20123;-44
2022/03/16 02:54:35;;;;;;;3.40;3.08;;;;;;;18.69;40.76;101592.81;5045988;28;20045;-44
2022/03/16 02:57:01;;;;;;;4.70;3.45;;;;;;;18.69;40.92;101586.72;5046125;28;20072;-42
2022/03/16 02:59:27;;;;;;;5.70;3.58;;;;;;;18.69;41.04;101600.72;5045364;28;20025;-40
2022/03/16 03:01:52;;;;;;;5.60;3.95;;;;;;;18.70;41.08;101598.91;5016334;28;20045;-43
2022/03/16 03:04:18;;;;;;;5.93;3.78;;;;;;;18.69;41.20;101590.19;5045789;28;20036;-42
2022/03/16 03:06:43;;;;;;;5.13;3.22;;;;;;;18.69;41.07;101589.34;5045902;28;20225;-42
2022/03/16 03:09:09;;;;;;;6.70;3.05;;;;;;;18.68;41.17;101587.69;5046180;28;20037;-41
2022/03/16 03:11:35;;;;;;;5.15;3.53;;;;;;;18.68;41.30;101588.53;5045560;28;20470;-42
2022/03/16 03:14:00;;;;;;;6.63;2.90;;;;;;;18.67;41.14;101581.59;5045473;28;20496;-40
2022/03/16 03:16:26;;;;;;;2.95;2.65;;;;;;;18.66;41.09;101582.59;5043725;28;20025;-41
2022/03/16 03:18:51;;;;;;;3.78;3.03;;;;;;;18.66;41.13;101582.59;5045326;28;20152;-42
2022/03/16 03:21:17;;;;;;;4.57;3.20;;;;;;;18.66;41.13;101579.13;5045576;28;20043;-42
2022/03/16 03:23:42;;;;;;;3.42;2.72;;;;;;;18.66;41.16;101582.59;5045308;28;20024;-43
2022/03/16 03:26:08;;;;;;;5.15;3.15;;;;;;;18.65;41.21;101578.31;5027899;28;20115;-43
2022/03/16 03:28:33;;;;;;;5.05;2.88;;;;;;;18.65;41.17;101580.94;5046334;28;20047;-43
2022/03/16 03:30:59;;;;;;;3.95;3.08;;;;;;;18.65;41.18;101578.31;5027107;28;20025;-44
2022/03/16 03:33:24;;;;;;;3.22;2.95;;;;;;;18.64;41.20;101576.66;5045440;28;20125;-42
2022/03/16 03:35:50;;;;;;;4.03;2.97;;;;;;;18.66;41.27;101573.84;5045432;28;20468;-42
2022/03/16 03:38:16;;;;;;;4.80;2.83;;;;;;;18.66;41.27;101568.56;5027815;28;20326;-43
2022/03/16 03:40:43;;;;;;;3.00;2.70;;;;;;;18.66;41.17;101576.50;5044761;28;20029;-40
2022/03/16 03:43:08;;;;;;;4.15;2.72;;;;;;;18.65;41.25;101566.94;5045311;28;20069;-42
2022/03/16 03:45:34;;;;;;;4.28;2.83;;;;;;;18.65;41.23;101578.31;5045784;28;20052;-42
2022/03/16 03:47:59;;;;;;;4.03;3.50;;;;;;;18.65;41.10;101577.47;5045533;28;20036;-42
2022/03/16 03:50:25;;;;;;;3.53;3.05;;;;;;;18.64;41.23;101584.56;5045059;28;20034;-42
2022/03/16 03:52:50;;;;;;;3.28;2.45;;;;;;;18.64;41.18;101579.31;5047332;28;20123;-43
2022/03/16 03:55:16;;;;;;;3.95;3.13;;;;;;;18.64;41.18;101581.13;5031038;28;20025;-42
2022/03/16 03:57:41;;;;;;;4.00;2.70;;;;;;;18.63;41.23;101582.94;5048373;28;20037;-42
2022/03/16 04:00:07;;;;;;;4.45;2.88;;;;;;;18.62;41.17;101580.47;5049190;28;20460;-41
2022/03/16 04:02:33;;;;;;;4.28;2.70;;;;;;;18.62;41.35;101583.09;5048816;28;20112;-41
2022/03/16 04:05:01;;;;;;;2.85;2.03;;;;;;;18.60;41.20;101574.50;5049392;28;20070;-43
2022/03/16 04:07:26;;;;;;;3.75;3.15;;;;;;;18.58;41.31;101583.41;5048440;28;20480;-42
2022/03/16 04:09:53;;;;;;;3.95;3.00;;;;;;;18.58;41.26;101587.88;5047918;28;20052;-40
2022/03/16 04:12:19;;;;;;;3.58;3.28;;;;;;;18.58;41.34;101579.94;5030092;28;20094;-46
2022/03/16 04:14:44;;;;;;;3.80;2.72;;;;;;;18.57;41.36;101579.13;5030580;28;20029;-41
2022/03/16 04:17:10;;;;;;;5.25;3.25;;;;;;;18.58;41.38;101579.94;5048400;28;20076;-42
2022/03/16 04:19:35;;;;;;;4.25;3.03;;;;;;;18.57;41.45;101580.94;5048703;28;20021;-41
2022/03/16 04:22:01;;;;;;;3.15;2.80;;;;;;;18.56;41.40;101580.13;5048451;28;20386;-41
2022/03/16 04:24:26;;;;;;;3.60;3.00;;;;;;;18.57;41.38;101584.41;5048236;28;20163;-40
2022/03/16 04:26:52;;;;;;;3.72;3.05;;;;;;;18.57;41.39;101575.66;5048157;28;20044;-40
2022/03/16 04:29:17;;;;;;;3.50;2.60;;;;;;;18.55;41.39;101578.47;5042513;28;20025;-39
2022/03/16 04:31:43;;;;;;;3.33;2.15;;;;;;;18.56;41.29;101569.56;5044231;28;20144;-44
2022/03/16 04:34:08;;;;;;;4.32;2.55;;;;;;;18.55;41.16;101572.38;5048554;28;20029;-39
2022/03/16 04:36:33;;;;;;;2.33;1.85;;;;;;;18.54;41.39;101576.00;5048397;28;20111;-40
2022/03/16 04:38:59;;;;;;;2.30;1.80;;;;;;;18.53;41.45;101571.72;5048418;28;20040;-39
2022/03/16 04:41:24;;;;;;;1.88;1.70;;;;;;;18.52;41.33;101567.44;5047934;28;20341;-42
2022/03/16 04:43:50;;;;;;;2.67;1.80;;;;;;;18.50;41.26;101570.22;5048294;28;20539;-41
2022/03/16 04:46:15;;;;;;;2.60;1.92;;;;;;;18.50;41.44;101572.06;5048085;28;20069;-44
2022/03/16 04:48:41;;;;;;;2.65;2.33;;;;;;;18.48;41.34;101566.94;5048941;28;20036;-42
2022/03/16 04:51:07;;;;;;;2.72;2.30;;;;;;;18.46;41.38;101558.38;5047734;28;20483;-40
2022/03/16 04:53:32;;;;;;;2.22;1.70;;;;;;;18.46;41.51;101562.81;5048256;28;20036;-41
2022/03/16 04:55:58;;;;;;;2.58;2.13;;;;;;;18.46;41.38;101557.53;5047941;28;20033;-39
2022/03/16 04:58:23;;;;;;;3.13;1.88;;;;;;;18.46;41.45;101560.19;5048472;28;20060;-39
2022/03/16 05:00:49;;;;;;;2.28;1.95;;;;;;;18.45;41.46;101561.19;5047709;28;20025;-43
2022/03/16 05:03:14;;;;;;;3.00;2.45;;;;;;;18.44;41.48;101563.00;5047017;28;20119;-43
2022/03/16 05:05:40;;;;;;;2.25;2.05;;;;;;;18.43;41.42;101555.28;5046805;28;20311;-42
2022/03/16 05:08:05;;;;;;;2.45;2.00;;;;;;;18.43;41.54;101555.28;5048310;28;20037;-44
2022/03/16 05:10:31;;;;;;;2.20;1.98;;;;;;;18.42;41.42;101545.72;5046605;28;20017;-42
2022/03/16 05:12:57;;;;;;;3.88;2.55;;;;;;;18.42;41.50;101551.81;5047435;28;20500;-39
2022/03/16 05:15:22;;;;;;;1.88;1.42;;;;;;;18.42;41.49;101551.00;5047352;28;20500;-39
2022/03/16 05:17:48;;;;;;;2.42;2.15;;;;;;;18.42;41.54;101548.34;5047218;28;20147;-42
2022/03/16 05:20:15;;;;;;;2.92;2.58;;;;;;;18.41;41.56;101544.88;5047013;28;20025;-40
2022/03/16 05:22:51;;;;;;;2.88;2.17;;;;;;;18.41;41.63;101544.06;5047531;28;20036;-44
2022/03/16 05:25:22;;;;;;;2.47;2.25;;;;;;;18.42;41.60;101543.06;5047400;28;20461;-43
2022/03/16 05:27:47;;;;;;;2.35;2.15;;;;;;;18.42;41.65;101545.72;5047771;28;20029;-39
2022/03/16 05:30:14;;;;;;;2.38;2.15;;;;;;;18.42;41.56;101546.53;5047357;28;20061;-43
2022/03/16 05:32:41;;;;;;;2.92;2.25;;;;;;;18.43;41.57;101547.34;5047410;28;20025;-40
2022/03/16 05:35:09;;;;;;;2.97;2.30;;;;;;;18.41;41.65;101544.06;5029165;28;20256;-43
2022/03/16 05:37:35;;;;;;;3.25;2.38;;;;;;;18.41;41.55;101547.53;5047088;28;20036;-42
2022/03/16 05:40:00;;;;;;;2.67;2.25;;;;;;;18.42;41.66;101537.78;5047241;28;20354;-42
2022/03/16 05:42:26;;;;;;;2.22;1.77;;;;;;;18.41;41.62;101538.78;5046707;28;20040;-43
2022/03/16 05:44:54;;;;;;;2.42;1.92;;;;;;;18.41;41.64;101538.78;5047104;28;20024;-43
2022/03/16 05:47:24;;;;;;;2.92;2.17;;;;;;;18.38;41.64;101539.13;5050320;28;20108;-42
2022/03/16 05:49:58;;;;;;;2.72;1.55;;;;;;;18.36;41.64;101535.84;5047475;28;20091;-42
2022/03/16 05:52:25;;;;;;;3.65;2.08;;;;;;;18.36;41.58;101546.38;5046780;28;20056;-41
2022/03/16 05:54:52;;;;;;;2.40;2.20;;;;;;;18.37;41.68;101537.47;5047119;28;20123;-41
2022/03/16 05:57:19;;;;;;;3.90;2.08;;;;;;;18.38;41.60;101537.31;5046664;28;20021;-40
2022/03/16 05:59:45;;;;;;;3.13;2.33;;;;;;;18.38;41.66;101541.75;5046695;28;20036;-45
2022/03/16 06:02:11;;;;;;;2.63;2.40;;;;;;;18.38;41.64;101545.22;5045463;28;20040;-40
2022/03/16 06:04:38;;;;;;;2.30;1.88;;;;;;;18.38;41.54;101544.41;5046707;28;20039;-42
2022/03/16 06:07:05;;;;;;;3.65;2.05;;;;;;;18.39;41.63;101543.41;5042756;28;20116;-43
2022/03/16 06:09:31;;;;;;;2.53;2.33;;;;;;;18.41;41.59;101536.16;5046885;28;20195;-42
2022/03/16 06:11:57;;;;;;;3.40;2.47;;;;;;;18.42;41.58;101541.25;5043399;28;20519;-43
2022/03/16 06:14:23;;;;;;;4.85;2.30;;;;;;;18.45;41.44;101537.44;5046167;28;20108;-44
2022/03/16 06:16:48;;;;;;;3.45;2.45;;;;;;;18.48;41.29;101542.38;5045924;28;20665;-42
2022/03/16 06:19:14;;;;;;;3.45;2.65;;;;;;;18.51;41.24;101550.75;5046229;28;20056;-44
2022/03/16 06:21:39;;;;;;;5.55;2.60;;;;;;;18.54;41.32;101549.59;5041245;28;20071;-45
2022/03/16 06:24:06;;;;;;;5.97;2.70;;;;;;;18.58;41.82;101550.91;5038795;28;20194;-42
2022/03/16 06:26:32;;;;;;;5.65;2.35;;;;;;;18.62;41.35;101546.16;5028760;28;20463;-43
2022/03/16 06:28:58;;;;;;;2.88;2.03;;;;;;;18.65;41.33;101554.56;5046796;28;20033;-42
2022/03/16 06:31:24;;;;;;;2.95;1.52;;;;;;;18.67;41.23;101555.22;5028736;28;20316;-44
2022/03/16 06:33:49;;;;;;;2.63;1.80;;;;;;;18.70;40.96;101562.78;5046689;28;20039;-43
2022/03/16 06:36:15;;;;;;;2.97;2.17;;;;;;;18.76;41.13;101563.91;5046487;28;20036;-43
2022/03/16 06:38:40;;;;;;;2.17;1.88;;;;;;;18.80;40.91;101566.06;5046998;28;20033;-46
2022/03/16 06:41:06;;;;;;;2.35;1.85;;;;;;;18.87;40.92;101560.91;5046324;28;20433;-44
2022/03/16 06:43:31;;;;;;;1.88;1.58;;;;;;;18.93;40.71;101554.09;5046684;28;20040;-41
2022/03/16 06:45:57;;;;;;;3.35;1.80;;;;;;;18.97;40.57;101560.66;5046250;28;20124;-42
2022/03/16 06:48:23;;;;;;;2.83;1.95;;;;;;;19.03;40.57;101558.16;5046135;28;20460;-40
2022/03/16 06:50:52;;;;;;;3.53;1.77;;;;;;;19.11;40.39;101558.13;5028697;28;20041;-44
2022/03/16 06:53:18;;;;;;;1.98;1.70;;;;;;;19.17;40.33;101559.25;5046669;28;20086;-42
2022/03/16 06:55:43;;;;;;;1.90;1.67;;;;;;;19.22;40.37;101556.91;5046593;28;20033;-40
2022/03/16 06:58:09;;;;;;;3.85;1.92;;;;;;;19.28;40.28;101553.56;5046061;28;20148;-41
2022/03/16 07:00:35;;;;;;;5.72;1.77;;;;;;;19.34;40.09;101557.34;5046061;28;20120;-42
2022/03/16 07:03:02;;;;;;;2.40;1.95;;;;;;;19.40;40.14;101562.72;5046141;28;20428;-42
2022/03/16 07:05:32;;;;;;;2.97;1.95;;;;;;;19.46;40.00;101555.91;5046363;28;20445;-42
2022/03/16 07:08:00;;;;;;;2.25;1.60;;;;;;;19.52;40.00;101555.25;5046233;28;20082;-44
2022/03/16 07:10:27;;;;;;;3.40;1.75;;;;;;;19.57;40.00;101557.34;5045957;28;20032;-43
2022/03/16 07:12:52;;;;;;;2.35;1.85;;;;;;;19.62;39.88;101555.00;5046132;28;20040;-40
2022/03/16 07:15:18;;;;;;;2.25;1.88;;;;;;;19.69;40.00;101558.59;5045742;28;20052;-43
2022/03/16 07:17:44;;;;;;;2.80;1.95;;;;;;;19.71;39.81;101552.13;5046530;28;20144;-43
2022/03/16 07:20:10;;;;;;;3.17;1.90;;;;;;;19.76;39.85;101554.25;5046156;28;20032;-42
2022/03/16 07:22:36;;;;;;;2.80;1.67;;;;;;;19.80;39.93;101553.72;5046198;28;20044;-40
2022/03/16 07:25:05;;;;;;;3.00;1.83;;;;;;;19.83;39.63;101548.06;5046004;28;20025;-41
2022/03/16 07:27:31;;;;;;;2.80;1.67;;;;;;;19.88;39.71;101558.06;5047906;28;20041;-42
2022/03/16 07:29:56;;;;;;;2.42;1.90;;;;;;;19.92;39.58;101548.78;5049812;28;20021;-43
2022/03/16 07:32:22;;;;;;;2.28;1.80;;;;;;;19.96;39.74;101547.44;5048845;28;20441;-41
2022/03/16 07:34:48;;;;;;;3.05;1.58;;;;;;;20.00;39.43;101547.88;5047945;28;20047;-40
2022/03/16 07:37:14;;;;;;;2.97;1.55;;;;;;;20.03;39.53;101548.34;5047208;28;20035;-42
2022/03/16 07:39:40;;;;;;;2.28;1.73;;;;;;;20.06;39.54;101548.00;5048710;28;20032;-43
2022/03/16 07:42:06;;;;;;;1.80;1.50;;;;;;;20.11;39.33;101555.38;5046012;28;20041;-41
2022/03/16 07:44:31;;;;;;;2.13;1.88;;;;;;;20.14;39.38;101542.63;5050145;28;20033;-43
2022/03/16 07:46:56;;;;;;;3.90;1.92;;;;;;;20.17;39.22;101552.84;5050286;28;20262;-44
2022/03/16 07:49:22;;;;;;;2.33;1.38;;;;;;;20.21;39.30;101542.72;5049510;28;20123;-41
2022/03/16 07:51:47;;;;;;;2.97;1.52;;;;;;;20.25;39.51;101540.53;5050000;28;20028;-44
2022/03/16 07:54:13;;;;;;;7.72;1.58;;;;;;;20.30;39.30;101543.47;5049408;28;20427;-42
2022/03/16 07:56:40;;;;;;;4.03;1.70;;;;;;;20.32;39.12;101542.25;5049794;28;20411;-41
2022/03/16 07:59:05;;;;;;;2.28;1.75;;;;;;;20.37;39.47;101541.72;5030986;28;20040;-44
2022/03/16 08:01:31;;;;;;;2.30;1.50;;;;;;;20.42;39.33;101536.72;5049526;28;20036;-41
2022/03/16 08:03:57;;;;;;;3.83;1.73;;;;;;;20.45;39.05;101541.66;5049438;28;20036;-41
2022/03/16 08:06:22;;;;;;;4.20;1.60;;;;;;;20.47;39.23;101545.75;5049800;28;20036;-42
2022/03/16 08:08:48;;;;;;;2.70;2.08;;;;;;;20.46;38.82;101543.28;5049717;28;20028;-41
2022/03/16 08:11:14;;;;;;;1.73;1.40;;;;;;;20.47;39.14;101543.13;5049456;28;20074;-42
2022/03/16 08:13:39;;;;;;;2.97;1.38;;;;;;;20.47;39.20;101534.34;5049081;28;20075;-43
2022/03/16 08:16:05;;;;;;;3.00;1.88;;;;;;;20.45;39.61;101536.34;5043645;28;20120;-42
2022/03/16 08:18:31;;;;;;;4.93;1.80;;;;;;;20.40;40.00;101544.03;5030430;28;20043;-41
2022/03/16 08:20:57;;;;;;;3.35;1.92;;;;;;;20.37;40.51;101545.19;5048288;28;20040;-44
2022/03/16 08:23:23;;;;;;;6.18;1.83;;;;;;;20.38;40.81;101543.38;5048560;28;20037;-41
2022/03/16 08:25:49;;;;;;;7.55;2.42;;;;;;;20.38;41.30;101546.03;5047934;28;20036;-47
2022/03/16 08:28:14;;;;;;;3.47;1.85;;;;;;;20.38;41.70;101543.38;5048882;28;20124;-43
2022/03/16 08:30:41;;;;;;;3.90;2.50;;;;;;;20.37;41.94;101544.34;5047648;28;20033;-42
2022/03/16 08:33:07;;;;;;;5.75;2.03;;;;;;;20.32;42.19;101549.41;5047405;28;20512;-46
2022/03/16 08:35:32;;;;;;;4.25;1.83;;;;;;;20.30;42.62;101546.94;5046164;28;20035;-38
2022/03/16 08:37:58;;;;;;;6.68;2.30;;;;;;;20.29;42.37;101536.53;5039537;28;20029;-44
2022/03/16 08:40:24;;;;;;;6.05;1.88;;;;;;;20.28;42.23;101543.66;5043111;28;20500;-46
2022/03/16 08:42:51;;;;;;;5.13;1.55;;;;;;;20.27;42.21;101544.66;5045443;28;20114;-41
2022/03/16 08:45:16;;;;;;;7.18;1.70;;;;;;;20.26;42.33;101547.47;5045722;28;20032;-41
2022/03/16 08:47:43;;;;;;;2.88;1.98;;;;;;;20.26;42.23;101552.78;5044897;28;20029;-43
2022/03/16 08:50:09;;;;;;;5.32;1.67;;;;;;;20.26;42.10;101547.47;5046682;28;20275;-44
2022/03/16 08:52:34;;;;;;;5.07;1.92;;;;;;;20.24;42.38;101545.00;5044580;28;20400;-44
2022/03/16 08:55:00;;;;;;;5.78;2.63;;;;;;;20.23;43.00;101555.78;5035607;28;20045;-47
2022/03/16 08:57:26;;;;;;;7.20;3.92;;;;;;;20.23;42.93;101551.31;5046144;28;20036;-41
2022/03/16 08:59:53;;;;;;;6.30;3.47;;;;;;;20.23;43.25;101555.78;5047814;28;20036;-49
2022/03/16 09:02:18;;;;;;;4.65;3.25;;;;;;;20.21;42.89;101550.66;5024049;28;20146;-41
2022/03/16 09:04:44;;;;;;;6.07;3.03;;;;;;;20.22;42.58;101552.31;5041568;28;20024;-43
2022/03/16 09:07:09;;;;;;;5.32;2.50;;;;;;;20.21;42.49;101554.13;5049278;28;20040;-45
2022/03/16 09:09:35;;;;;;;7.38;2.53;;;;;;;20.22;42.41;101554.97;5045408;28;20778;-40
2022/03/16 09:12:03;;;;;;;6.97;2.75;;;;;;;20.20;42.28;101544.56;5040810;28;20570;-38
2022/03/16 09:17:10;;;;;;;4.93;2.33;;;;;;;20.18;42.07;101541.25;5809057;22;20057;-71
2022/03/16 09:19:35;;;;;;;4.97;2.58;;;;;;;20.16;42.26;101545.09;5066592;28;20074;-71
2022/03/16 09:22:02;;;;;;;4.78;2.05;;;;;;;20.10;41.95;101538.69;5068086;28;20115;-71
2022/03/16 09:24:28;;;;;;;6.25;2.55;;;;;;;20.05;41.64;101546.34;5065057;28;20028;-70
2022/03/16 09:26:56;;;;;;;6.93;2.53;;;;;;;20.02;41.21;101532.66;5050892;22;20119;-36
2022/03/16 09:29:22;;;;;;;5.13;2.03;;;;;;;19.98;41.10;101534.84;5028434;28;20025;-36
2022/03/16 09:31:47;;;;;;;5.63;2.67;;;;;;;19.98;41.11;101536.66;5028519;28;20377;-37
2022/03/16 09:34:13;;;;;;;2.65;1.88;;;;;;;19.95;41.12;101529.91;5028510;28;20037;-35
2022/03/16 09:36:42;;;;;;;8.25;1.83;;;;;;;19.94;41.19;101533.56;5028515;28;20026;-36
2022/03/16 09:39:08;;;;;;;2.33;1.95;;;;;;;19.94;41.29;101532.72;5027996;28;20026;-37
2022/03/16 09:41:33;;;;;;;6.07;2.10;;;;;;;19.92;41.25;101535.56;5027910;28;20103;-36
2022/03/16 09:44:00;;;;;;;7.28;2.40;;;;;;;19.90;41.41;101529.63;5028024;28;20108;-35
2022/03/16 09:46:30;;;;;;;3.30;1.70;;;;;;;19.89;41.42;101531.44;5027750;28;20041;-36
2022/03/16 09:48:57;;;;;;;4.85;2.22;;;;;;;19.88;41.38;101528.97;5010052;28;20030;-37
2022/03/16 09:51:22;;;;;;;5.65;2.00;;;;;;;19.87;41.61;101527.34;5027586;28;20352;-37
2022/03/16 09:53:48;;;;;;;3.47;1.40;;;;;;;19.86;41.62;101523.88;5027976;28;20025;-36
2022/03/16 09:56:14;;;;;;;5.18;2.40;;;;;;;19.84;41.79;101527.72;5027872;28;20536;-36
2022/03/16 09:58:42;;;;;;;5.70;2.17;;;;;;;19.83;41.89;101520.78;5027642;28;20026;-36
2022/03/16 10:01:08;;;;;;;3.22;1.98;;;;;;;19.80;41.92;101516.69;5027451;28;20033;-37
2022/03/16 10:03:34;;;;;;;10.20;2.42;;;;;;;19.80;41.85;101515.88;5027560;28;20108;-36
2022/03/16 10:06:00;;;;;;;3.47;1.83;;;;;;;19.80;42.00;101510.56;5019519;28;20025;-36
2022/03/16 10:08:34;;;;;;;3.20;1.50;;;;;;;19.77;41.95;101510.94;5025865;28;20048;-38
2022/03/16 10:13:57;;;;;;;2.67;2.15;;;;;;;19.77;41.99;101506.47;5022420;28;20198;-37
2022/03/16 10:16:23;;;;;;;4.07;2.15;;;;;;;19.78;42.00;101502.00;5009719;28;20165;-37
2022/03/16 10:18:55;;;;;;;5.05;2.08;;;;;;;19.77;41.92;101505.63;5048457;28;20048;-37
2022/03/16 10:21:22;;;;;;;7.97;2.40;;;;;;;19.75;42.46;101500.53;5039877;28;20029;-36
2022/03/16 10:23:47;;;;;;;6.97;2.28;;;;;;;19.75;42.43;101495.25;5040467;28;20508;-37
2022/03/16 10:26:17;;;;;;;3.80;1.67;;;;;;;19.74;42.23;101492.78;5028694;28;20166;-36
2022/03/16 10:28:46;;;;;;;6.18;2.38;;;;;;;19.74;42.31;101493.59;5046593;28;20113;-36
2022/03/16 10:31:14;;;;;;;2.55;1.35;;;;;;;19.74;42.26;101490.97;5024050;28;20025;-37
2022/03/16 10:33:54;;;;;;;5.00;1.30;;;;;;;19.70;42.06;101489.66;5042077;28;20016;-36
2022/03/16 10:36:22;;;;;;;2.45;1.50;;;;;;;19.70;42.11;101479.09;5055881;28;20495;-37
2022/03/16 10:39:03;;;;;;;3.05;1.85;;;;;;;19.66;41.91;101483.09;5043539;28;20484;-36
2022/03/16 10:47:00;;;;;;;;;;;;;;;19.51;42.17;101480.41;5034071;28;20052;-37
2022/03/16 10:49:32;;;;;;;2.08;1.23;;;;;;;19.53;42.10;101477.59;5044936;28;19928;-37
2022/03/16 10:52:12;;;;;;;2.10;1.45;;;;;;;19.54;41.96;101482.69;5036862;28;20418;-36
2022/03/16 10:54:38;;;;;;;3.10;2.25;;;;;;;19.55;42.04;101481.69;5066532;28;20221;-37
2022/03/16 10:57:08;;;;;;;6.22;1.38;;;;;;;19.55;42.42;101486.16;5059050;28;20028;-38
2022/03/16 10:59:34;;;;;;;3.95;1.60;;;;;;;19.57;42.27;101483.34;5047775;28;20033;-38
2022/03/16 11:02:02;;;;;;;3.47;2.15;;;;;;;19.58;42.09;101487.63;5044160;28;20082;-37
2022/03/16 11:04:33;;;;;;;4.60;1.65;;;;;;;19.55;41.97;101492.28;5050140;28;20032;-37
2022/03/16 11:07:00;;;;;;;3.55;2.45;;;;;;;19.55;42.10;101494.91;5043109;28;20033;-37
2022/03/16 11:09:27;;;;;;;4.47;1.83;;;;;;;19.54;41.95;101489.81;5060720;28;20032;-36
2022/03/16 11:14:38;;;;;;;2.67;1.85;;;;;;;19.52;41.94;101492.63;5050956;28;20073;-37
2022/03/16 11:17:04;;;;;;;2.65;1.80;;;;;;;19.52;42.02;101486.50;5040842;28;20051;-36
2022/03/16 11:19:31;;;;;;;1.92;1.70;;;;;;;19.52;41.94;101487.34;5027797;28;20036;-37
2022/03/16 11:22:04;;;;;;;5.20;2.30;;;;;;;19.52;42.01;101482.06;5026672;28;20629;-37
2022/03/16 11:24:36;;;;;;;2.45;2.03;;;;;;;19.51;42.04;101480.41;5038089;28;20040;-40
2022/03/16 11:27:23;;;;;;;1.73;1.58;;;;;;;19.50;42.01;101476.09;5041344;28;20410;-36
2022/03/16 11:30:08;;;;;;;3.28;1.65;;;;;;;19.48;41.99;101478.09;5049001;28;20303;-36
2022/03/16 11:32:42;;;;;;;4.30;1.60;;;;;;;19.48;42.00;101466.69;5043052;28;20032;-36
2022/03/16 11:35:18;;;;;;;2.42;1.40;;;;;;;19.47;41.94;101465.88;5030016;28;20415;-37
2022/03/16 11:37:51;;;;;;;2.50;1.80;;;;;;;19.46;42.08;101460.78;5038045;28;20049;-37